createdAt,value
2023-06-29T00:00:00.358Z,70.30
2023-06-29T00:02:30.583Z,70.42
2023-06-29T00:04:59.062Z,70.43
2023-06-29T00:07:27.012Z,70.49
2023-06-29T00:09:55.932Z,70.48
2023-06-29T00:12:24.030Z,70.50
2023-06-29T00:14:52.013Z,70.47
2023-06-29T00:18:16.979Z,70.45
2023-06-29T00:21:24.275Z,70.37
2023-06-29T00:23:54.854Z,70.34
2023-06-29T00:26:22.856Z,70.39
2023-06-29T00:28:50.816Z,70.28
2023-06-29T00:31:20.171Z,70.12
2023-06-29T00:33:48.129Z,69.98
2023-06-29T00:36:16.106Z,69.85
2023-06-29T00:38:44.034Z,69.76
2023-06-29T00:41:12.040Z,69.69
2023-06-29T00:43:42.471Z,69.57
2023-06-29T00:46:12.363Z,69.53
2023-06-29T00:48:40.416Z,69.68
2023-06-29T00:51:08.831Z,69.49
2023-06-29T00:53:38.430Z,69.50
2023-06-29T00:56:06.565Z,69.62
2023-06-29T00:58:35.000Z,69.74
2023-06-29T01:01:03.037Z,69.90
2023-06-29T01:03:32.256Z,69.89
2023-06-29T01:06:08.234Z,70.11
2023-06-29T01:08:46.863Z,70.24
2023-06-29T01:11:16.017Z,70.24
2023-06-29T01:13:46.321Z,70.18
2023-06-29T01:16:16.284Z,70.18
2023-06-29T01:18:47.045Z,70.27
2023-06-29T01:21:17.671Z,70.20
2023-06-29T01:23:47.884Z,70.17
2023-06-29T01:26:17.100Z,70.03
2023-06-29T01:28:45.079Z,70.13
2023-06-29T01:31:13.150Z,69.92
2023-06-29T01:33:41.907Z,69.75
2023-06-29T01:36:24.993Z,69.83
2023-06-29T01:39:07.172Z,69.82
2023-06-29T01:41:41.378Z,69.73
2023-06-29T01:44:15.920Z,69.66
2023-06-29T01:46:46.552Z,69.71
2023-06-29T01:49:15.102Z,69.78
2023-06-29T01:51:43.310Z,69.55
2023-06-29T01:54:11.576Z,69.59
2023-06-29T01:56:39.673Z,69.58
2023-06-29T01:59:07.581Z,69.54
2023-06-29T02:01:35.624Z,69.82
2023-06-29T02:04:04.314Z,69.93
2023-06-29T02:06:32.306Z,69.91
2023-06-29T02:09:00.739Z,70.00
2023-06-29T02:11:28.794Z,69.91
2023-06-29T02:13:56.777Z,69.90
2023-06-29T02:16:25.178Z,69.98
2023-06-29T02:18:53.247Z,70.03
2023-06-29T02:21:21.681Z,69.99
2023-06-29T02:23:49.736Z,70.01
2023-06-29T02:26:17.978Z,69.96
2023-06-29T02:28:46.085Z,70.02
2023-06-29T02:31:14.100Z,70.00
2023-06-29T02:33:42.170Z,70.05
2023-06-29T02:36:11.825Z,69.99
2023-06-29T02:38:40.057Z,69.98
2023-06-29T02:41:08.277Z,70.23
2023-06-29T02:43:36.254Z,70.17
2023-06-29T02:46:04.857Z,70.27
2023-06-29T02:48:34.328Z,70.24
2023-06-29T02:51:02.461Z,70.23
2023-06-29T02:53:30.687Z,70.25
2023-06-29T02:55:58.708Z,70.27
2023-06-29T02:58:29.050Z,70.29
2023-06-29T03:00:57.656Z,70.41
2023-06-29T03:03:25.745Z,70.30
2023-06-29T03:05:53.692Z,70.27
2023-06-29T03:08:21.958Z,70.17
2023-06-29T03:10:50.077Z,70.21
2023-06-29T03:13:18.099Z,70.15
2023-06-29T03:15:46.344Z,70.11
2023-06-29T03:18:14.771Z,70.25
2023-06-29T03:20:43.052Z,70.26
2023-06-29T03:23:11.045Z,70.37
2023-06-29T03:25:38.998Z,70.47
2023-06-29T03:28:07.007Z,70.31
2023-06-29T03:30:34.983Z,70.45
2023-06-29T03:33:03.081Z,70.41
2023-06-29T03:35:31.123Z,70.57
2023-06-29T03:37:59.101Z,70.44
2023-06-29T03:40:27.157Z,70.46
2023-06-29T03:42:55.263Z,70.49
2023-06-29T03:45:23.245Z,70.48
2023-06-29T03:47:51.450Z,70.45
2023-06-29T03:50:19.414Z,70.55
2023-06-29T03:52:47.552Z,70.55
2023-06-29T03:55:17.910Z,70.48
2023-06-29T03:57:46.500Z,70.34
2023-06-29T04:00:16.923Z,70.34
2023-06-29T04:02:45.057Z,70.23
2023-06-29T04:05:13.574Z,70.28
2023-06-29T04:07:41.679Z,70.20
2023-06-29T04:10:09.789Z,70.25
2023-06-29T04:12:37.772Z,70.35
2023-06-29T04:15:06.357Z,70.43
2023-06-29T04:17:34.288Z,70.31
2023-06-29T04:20:04.384Z,70.39
2023-06-29T04:22:32.974Z,70.44
2023-06-29T04:25:00.927Z,70.53
2023-06-29T04:27:28.908Z,70.60
2023-06-29T04:29:56.808Z,70.66
2023-06-29T04:32:24.765Z,70.50
2023-06-29T04:34:52.894Z,70.65
2023-06-29T04:37:20.864Z,70.71
2023-06-29T04:39:49.334Z,70.42
2023-06-29T04:42:18.253Z,70.43
2023-06-29T04:44:46.426Z,70.49
2023-06-29T04:47:14.634Z,70.44
2023-06-29T04:49:45.942Z,70.38
2023-06-29T04:52:14.067Z,70.34
2023-06-29T04:54:42.154Z,70.16
2023-06-29T04:57:10.168Z,69.97
2023-06-29T04:59:38.231Z,70.02
2023-06-29T05:02:07.021Z,69.98
2023-06-29T05:04:35.061Z,69.93
2023-06-29T05:07:03.080Z,70.04
2023-06-29T05:09:31.159Z,69.82
2023-06-29T05:11:59.059Z,69.74
2023-06-29T05:14:27.884Z,69.79
2023-06-29T05:16:55.997Z,69.80
2023-06-29T05:19:24.049Z,69.76
2023-06-29T05:21:52.030Z,69.74
2023-06-29T05:24:20.692Z,69.56
2023-06-29T05:26:48.645Z,69.24
2023-06-29T05:29:16.641Z,68.85
2023-06-29T05:31:44.727Z,68.67
2023-06-29T05:34:12.755Z,68.36
2023-06-29T05:36:40.686Z,68.27
2023-06-29T05:39:08.692Z,68.33
2023-06-29T05:41:37.063Z,68.28
2023-06-29T05:44:05.690Z,68.14
2023-06-29T05:46:35.263Z,68.09
2023-06-29T05:49:03.362Z,68.10
2023-06-29T05:51:31.393Z,68.16
2023-06-29T05:53:59.642Z,68.55
2023-06-29T05:56:27.823Z,68.66
2023-06-29T05:58:55.941Z,68.81
2023-06-29T06:01:24.045Z,68.58
2023-06-29T06:03:52.246Z,68.81
2023-06-29T06:06:20.250Z,68.73
2023-06-29T06:08:48.439Z,68.63
2023-06-29T06:11:16.468Z,68.70
2023-06-29T06:13:45.169Z,68.69
2023-06-29T06:16:13.829Z,68.70
2023-06-29T06:18:41.806Z,68.78
2023-06-29T06:21:10.231Z,68.92
2023-06-29T06:23:38.272Z,68.93
2023-06-29T06:26:06.259Z,69.12
2023-06-29T06:28:34.364Z,69.26
2023-06-29T06:31:02.442Z,69.34
2023-06-29T06:33:31.499Z,69.36
2023-06-29T06:36:00.913Z,69.25
2023-06-29T06:38:41.132Z,69.16
2023-06-29T06:41:17.579Z,69.32
2023-06-29T06:43:45.568Z,69.43
2023-06-29T06:46:14.313Z,69.31
2023-06-29T06:48:42.668Z,69.28
2023-06-29T06:51:10.797Z,69.23
2023-06-29T06:53:38.920Z,69.32
2023-06-29T06:56:07.181Z,69.44
2023-06-29T06:58:35.644Z,69.36
2023-06-29T07:01:03.803Z,69.17
2023-06-29T07:03:31.877Z,69.07
2023-06-29T07:06:00.177Z,69.15
2023-06-29T07:08:29.113Z,68.86
2023-06-29T07:10:57.126Z,68.54
2023-06-29T07:13:25.633Z,68.28
2023-06-29T07:15:53.716Z,67.97
2023-06-29T07:18:21.729Z,67.80
2023-06-29T07:25:51.918Z,67.84
2023-06-29T07:28:20.104Z,68.26
2023-06-29T07:30:48.101Z,68.26
2023-06-29T07:33:16.145Z,68.26
2023-06-29T07:35:44.307Z,67.99
2023-06-29T07:38:12.494Z,67.97
2023-06-29T07:40:40.680Z,67.43
2023-06-29T07:43:08.831Z,67.22
2023-06-29T07:45:36.790Z,66.92
2023-06-29T07:48:04.986Z,66.69
2023-06-29T07:50:33.008Z,66.43
2023-06-29T07:53:01.182Z,66.56
2023-06-29T07:55:29.308Z,66.34
2023-06-29T08:00:28.610Z,66.07
2023-06-29T08:02:56.813Z,65.78
2023-06-29T08:07:55.952Z,65.21
2023-06-29T08:10:24.742Z,64.68
2023-06-29T08:12:52.848Z,64.01
2023-06-29T08:15:21.129Z,63.94
2023-06-29T08:17:49.130Z,63.81
2023-06-29T08:20:17.276Z,63.38
2023-06-29T08:22:46.357Z,62.83
2023-06-29T08:25:14.359Z,62.49
2023-06-29T08:27:43.250Z,61.63
2023-06-29T08:30:12.049Z,60.60
2023-06-29T08:32:40.442Z,60.35
2023-06-29T08:35:08.768Z,60.50
2023-06-29T08:37:37.216Z,60.46
2023-06-29T08:40:06.753Z,60.14
2023-06-29T08:42:36.344Z,60.18
2023-06-29T08:45:06.828Z,60.05
2023-06-29T08:47:36.373Z,59.39
2023-06-29T08:50:06.428Z,59.38
2023-06-29T08:52:35.887Z,59.44
2023-06-29T08:55:04.678Z,59.30
2023-06-29T08:57:33.656Z,59.10
2023-06-29T09:00:05.048Z,59.15
2023-06-29T09:05:04.033Z,58.94
2023-06-29T09:07:33.268Z,58.56
2023-06-29T09:10:01.450Z,58.03
2023-06-29T09:12:29.573Z,57.74
2023-06-29T09:14:58.459Z,57.59
2023-06-29T09:17:28.117Z,56.86
2023-06-29T09:19:56.882Z,56.52
2023-06-29T09:22:32.303Z,56.72
2023-06-29T09:25:09.796Z,55.50
2023-06-29T09:27:44.281Z,55.21
2023-06-29T09:30:22.313Z,54.31
2023-06-29T09:32:54.170Z,52.69
2023-06-29T09:35:24.507Z,52.34
2023-06-29T09:37:52.827Z,52.08
2023-06-29T09:40:20.851Z,50.61
2023-06-29T09:42:50.013Z,49.52
2023-06-29T09:45:18.170Z,48.28
2023-06-29T09:50:24.915Z,48.49
2023-06-29T09:52:55.317Z,48.49
2023-06-29T09:55:31.427Z,49.27
2023-06-29T09:58:00.681Z,49.83
2023-06-29T10:00:29.267Z,49.38
2023-06-29T10:02:57.552Z,48.94
2023-06-29T10:05:25.811Z,49.54
2023-06-29T10:07:54.498Z,49.48
2023-06-29T10:10:24.942Z,48.73
2023-06-29T10:12:57.211Z,48.48
2023-06-29T10:15:27.675Z,47.99
2023-06-29T10:18:17.927Z,47.58
2023-06-29T10:20:47.357Z,46.96
2023-06-29T10:23:18.489Z,47.06
2023-06-29T10:25:50.044Z,46.78
2023-06-29T10:28:20.634Z,46.96
2023-06-29T10:30:52.090Z,47.24
2023-06-29T10:33:24.203Z,47.40
2023-06-29T10:35:54.008Z,47.69
2023-06-29T10:38:27.683Z,47.88
2023-06-29T10:40:55.750Z,47.78
2023-06-29T10:43:29.540Z,48.07
2023-06-29T10:46:00.353Z,47.72
2023-06-29T10:48:47.188Z,46.52
2023-06-29T10:51:16.366Z,45.63
2023-06-29T10:53:48.016Z,45.40
2023-06-29T10:56:32.255Z,45.38
2023-06-29T10:59:00.738Z,45.03
2023-06-29T11:01:29.411Z,44.85
2023-06-29T11:03:57.688Z,45.16
2023-06-29T11:06:34.159Z,45.92
2023-06-29T11:09:13.305Z,46.61
2023-06-29T11:11:43.497Z,47.19
2023-06-29T11:14:15.662Z,47.34
2023-06-29T11:16:43.789Z,46.87
2023-06-29T11:22:01.872Z,45.54
2023-06-29T11:24:31.226Z,44.68
2023-06-29T11:26:59.721Z,42.87
2023-06-29T11:29:28.966Z,42.50
2023-06-29T11:31:57.138Z,42.18
2023-06-29T11:34:25.187Z,42.10
2023-06-29T11:37:09.175Z,41.66
2023-06-29T11:39:41.265Z,40.68
2023-06-29T11:42:10.515Z,40.39
2023-06-29T11:44:39.486Z,40.74
2023-06-29T11:47:31.585Z,41.16
2023-06-29T11:49:58.812Z,41.61
2023-06-29T11:52:33.885Z,42.60
2023-06-29T11:55:04.581Z,42.11
2023-06-29T11:57:33.644Z,42.12
2023-06-29T12:00:03.300Z,42.01
2023-06-29T12:02:42.300Z,42.06
2023-06-29T12:05:11.253Z,41.56
2023-06-29T12:07:40.663Z,41.47
2023-06-29T12:10:23.018Z,41.58
2023-06-29T12:12:57.162Z,41.85
2023-06-29T12:15:27.086Z,42.28
2023-06-29T12:18:16.403Z,42.48
2023-06-29T12:20:48.117Z,42.67
2023-06-29T12:23:16.652Z,43.18
2023-06-29T12:25:45.896Z,42.72
2023-06-29T12:28:15.948Z,42.06
2023-06-29T12:30:45.024Z,41.94
2023-06-29T12:33:14.588Z,41.72
2023-06-29T12:35:43.935Z,41.06
2023-06-29T12:38:12.812Z,40.39
2023-06-29T12:40:40.886Z,40.48
2023-06-29T12:43:08.831Z,39.41
2023-06-29T12:45:37.066Z,38.90
2023-06-29T12:48:05.421Z,38.44
2023-06-29T12:50:34.056Z,37.88
2023-06-29T12:53:02.119Z,38.42
2023-06-29T12:55:30.010Z,38.63
2023-06-29T12:57:57.937Z,38.92
2023-06-29T13:00:26.146Z,38.75
2023-06-29T13:02:54.396Z,38.20
2023-06-29T13:05:22.853Z,38.23
2023-06-29T13:07:50.766Z,38.54
2023-06-29T13:10:19.518Z,38.83
2023-06-29T13:12:47.785Z,38.91
2023-06-29T13:15:15.823Z,39.75
2023-06-29T13:17:44.467Z,39.39
2023-06-29T13:20:15.920Z,38.88
2023-06-29T13:22:44.573Z,37.64
2023-06-29T13:25:13.012Z,37.44
2023-06-29T13:27:42.685Z,37.50
2023-06-29T13:30:11.240Z,37.11
2023-06-29T13:32:39.217Z,36.95
2023-06-29T13:35:07.457Z,37.26
2023-06-29T13:37:35.411Z,36.63
2023-06-29T13:40:04.059Z,37.05
2023-06-29T13:42:31.926Z,36.59
2023-06-29T13:44:59.844Z,36.43
2023-06-29T13:47:28.452Z,36.15
2023-06-29T13:49:56.438Z,36.25
2023-06-29T13:52:24.308Z,36.28
2023-06-29T13:54:52.230Z,36.40
2023-06-29T13:57:21.609Z,36.09
2023-06-29T13:59:50.266Z,35.67
2023-06-29T14:02:18.240Z,34.91
2023-06-29T14:04:46.546Z,35.00
2023-06-29T14:07:16.029Z,35.08
2023-06-29T14:09:44.059Z,35.04
2023-06-29T14:12:12.030Z,35.57
2023-06-29T14:14:39.889Z,35.52
2023-06-29T14:17:07.748Z,34.98
2023-06-29T14:19:35.644Z,35.34
2023-06-29T14:22:04.633Z,35.63
2023-06-29T14:24:32.620Z,35.08
2023-06-29T14:27:00.600Z,34.75
2023-06-29T14:29:28.465Z,34.86
2023-06-29T14:31:56.368Z,35.26
2023-06-29T14:34:24.400Z,35.31
2023-06-29T14:36:52.553Z,35.26
2023-06-29T14:39:20.460Z,35.82
2023-06-29T14:41:53.708Z,35.79
2023-06-29T14:44:21.697Z,36.17
2023-06-29T14:46:51.511Z,36.38
2023-06-29T14:49:19.592Z,36.54
2023-06-29T14:51:47.502Z,36.02
2023-06-29T14:54:19.440Z,35.79
2023-06-29T14:56:47.512Z,35.84
2023-06-29T14:59:15.650Z,36.24
2023-06-29T15:01:43.850Z,36.25
2023-06-29T15:04:11.857Z,36.63
2023-06-29T15:06:39.925Z,36.67
2023-06-29T15:09:08.736Z,36.48
2023-06-29T15:11:37.153Z,36.58
2023-06-29T15:14:05.488Z,36.64
2023-06-29T15:16:35.628Z,36.59
2023-06-29T15:19:04.380Z,36.48
2023-06-29T15:21:35.413Z,36.66
2023-06-29T15:24:03.775Z,36.14
2023-06-29T15:26:31.997Z,36.16
2023-06-29T15:28:59.973Z,36.47
2023-06-29T15:31:31.463Z,36.46
2023-06-29T15:34:00.036Z,36.48
2023-06-29T15:36:30.601Z,36.63
2023-06-29T15:38:59.103Z,37.29
2023-06-29T15:41:29.003Z,37.66
2023-06-29T15:44:01.950Z,37.87
2023-06-29T15:46:31.779Z,37.90
2023-06-29T15:49:00.388Z,37.67
2023-06-29T15:51:29.420Z,37.64
2023-06-29T15:54:00.310Z,37.63
2023-06-29T15:56:30.692Z,37.89
2023-06-29T15:59:03.009Z,37.89
2023-06-29T16:01:31.641Z,37.97
2023-06-29T16:03:59.790Z,38.02
2023-06-29T16:06:29.965Z,38.30
2023-06-29T16:08:58.978Z,38.01
2023-06-29T16:11:27.172Z,38.31
2023-06-29T16:13:55.962Z,38.85
2023-06-29T16:16:24.057Z,38.70
2023-06-29T16:18:52.223Z,38.66
2023-06-29T16:21:20.472Z,39.03
2023-06-29T16:23:49.052Z,39.13
2023-06-29T16:26:17.700Z,39.28
2023-06-29T16:28:46.445Z,39.20
2023-06-29T16:31:14.592Z,39.20
2023-06-29T16:33:43.025Z,39.04
2023-06-29T16:36:11.087Z,39.19
2023-06-29T16:38:39.636Z,39.21
2023-06-29T16:41:07.905Z,39.38
2023-06-29T16:43:35.886Z,39.49
2023-06-29T16:46:03.931Z,39.45
2023-06-29T16:48:32.145Z,39.93
2023-06-29T16:51:00.652Z,40.11
2023-06-29T16:53:29.198Z,40.08
2023-06-29T16:55:57.492Z,40.15
2023-06-29T16:58:27.792Z,40.08
2023-06-29T17:00:55.842Z,39.97
2023-06-29T17:03:23.871Z,40.00
2023-06-29T17:05:52.069Z,39.93
2023-06-29T17:08:20.075Z,40.00
2023-06-29T17:10:47.962Z,39.99
2023-06-29T17:13:15.836Z,40.29
2023-06-29T17:15:44.106Z,40.34
2023-06-29T17:18:12.393Z,40.28
2023-06-29T17:20:40.346Z,40.34
2023-06-29T17:23:08.469Z,40.19
2023-06-29T17:25:44.889Z,40.42
2023-06-29T17:28:13.331Z,40.19
2023-06-29T17:30:41.909Z,40.34
2023-06-29T17:33:11.269Z,40.48
2023-06-29T17:35:39.635Z,40.68
2023-06-29T17:38:07.629Z,40.89
2023-06-29T17:40:36.201Z,40.98
2023-06-29T17:43:04.129Z,41.25
2023-06-29T17:45:32.869Z,41.27
2023-06-29T17:48:00.894Z,41.56
2023-06-29T17:50:29.185Z,41.61
2023-06-29T17:52:58.023Z,41.98
2023-06-29T17:55:26.043Z,41.92
2023-06-29T17:57:54.195Z,42.03
2023-06-29T18:00:22.201Z,42.34
2023-06-29T18:02:50.630Z,42.54
2023-06-29T18:05:18.766Z,42.60
2023-06-29T18:07:46.804Z,42.58
2023-06-29T18:10:14.703Z,42.92
2023-06-29T18:12:42.692Z,42.92
2023-06-29T18:15:11.205Z,43.07
2023-06-29T18:17:39.239Z,43.14
2023-06-29T18:20:07.913Z,43.26
2023-06-29T18:22:36.066Z,43.33
2023-06-29T18:25:05.158Z,43.38
2023-06-29T18:27:33.228Z,43.56
2023-06-29T18:30:01.466Z,43.78
2023-06-29T18:32:29.585Z,43.78
2023-06-29T18:34:57.532Z,44.16
2023-06-29T18:37:25.449Z,44.05
2023-06-29T18:39:53.462Z,44.34
2023-06-29T18:42:21.895Z,44.52
2023-06-29T18:44:50.588Z,44.76
2023-06-29T18:47:19.014Z,44.82
2023-06-29T18:49:52.448Z,45.07
2023-06-29T18:52:21.438Z,45.25
2023-06-29T18:54:52.711Z,45.17
2023-06-29T18:57:21.126Z,45.37
2023-06-29T18:59:50.053Z,45.54
2023-06-29T19:02:19.688Z,45.67
2023-06-29T19:04:48.033Z,45.79
2023-06-29T19:07:17.804Z,45.95
2023-06-29T19:09:46.180Z,46.19
2023-06-29T19:12:14.400Z,46.26
2023-06-29T19:14:43.269Z,46.36
2023-06-29T19:17:11.504Z,46.52
2023-06-29T19:19:39.834Z,46.60
2023-06-29T19:22:08.689Z,46.94
2023-06-29T19:24:37.068Z,47.09
2023-06-29T19:27:07.243Z,47.65
2023-06-29T19:29:35.621Z,47.68
2023-06-29T19:32:06.168Z,48.09
2023-06-29T19:34:38.890Z,48.29
2023-06-29T19:37:07.512Z,48.59
2023-06-29T19:39:36.164Z,48.73
2023-06-29T19:42:05.304Z,48.99
2023-06-29T19:44:33.307Z,49.15
2023-06-29T19:47:01.708Z,49.23
2023-06-29T19:49:29.636Z,49.49
2023-06-29T19:51:58.947Z,49.53
2023-06-29T19:54:27.228Z,49.68
2023-06-29T19:56:55.746Z,49.94
2023-06-29T19:59:23.716Z,50.13
2023-06-29T20:01:51.885Z,50.38
2023-06-29T20:04:20.115Z,50.31
2023-06-29T20:06:48.578Z,50.45
2023-06-29T20:09:16.611Z,50.60
2023-06-29T20:11:44.952Z,50.53
2023-06-29T20:14:12.911Z,50.69
2023-06-29T20:16:40.988Z,50.77
2023-06-29T20:19:09.033Z,50.68
2023-06-29T20:21:37.044Z,50.84
2023-06-29T20:24:05.054Z,50.92
2023-06-29T20:26:33.978Z,51.12
2023-06-29T20:29:01.914Z,51.40
2023-06-29T20:31:30.918Z,51.49
2023-06-29T20:33:58.927Z,51.50
2023-06-29T20:36:27.085Z,51.94
2023-06-29T20:38:55.052Z,51.97
2023-06-29T20:41:24.563Z,52.12
2023-06-29T20:43:52.575Z,52.26
2023-06-29T20:46:20.593Z,52.57
2023-06-29T20:48:48.782Z,52.95
2023-06-29T20:51:18.290Z,53.04
2023-06-29T20:53:47.206Z,53.23
2023-06-29T20:56:15.089Z,53.53
2023-06-29T20:58:43.283Z,53.52
2023-06-29T21:01:11.436Z,53.67
2023-06-29T21:03:44.927Z,53.62
2023-06-29T21:06:13.548Z,53.81
2023-06-29T21:08:42.339Z,54.09
2023-06-29T21:11:10.833Z,54.24
2023-06-29T21:13:38.978Z,54.40
2023-06-29T21:16:07.355Z,54.46
2023-06-29T21:18:35.677Z,54.50
2023-06-29T21:21:04.133Z,54.39
2023-06-29T21:23:32.104Z,54.36
2023-06-29T21:26:00.349Z,54.40
2023-06-29T21:28:28.862Z,54.60
2023-06-29T21:30:58.199Z,54.74
2023-06-29T21:33:27.405Z,54.83
2023-06-29T21:35:55.558Z,54.86
2023-06-29T21:38:27.973Z,54.92
2023-06-29T21:41:00.410Z,55.13
2023-06-29T21:43:28.448Z,55.24
2023-06-29T21:45:56.498Z,55.51
2023-06-29T21:48:24.516Z,55.63
2023-06-29T21:50:52.624Z,55.76
2023-06-29T21:53:21.318Z,55.82
2023-06-29T21:55:49.427Z,55.99
2023-06-29T21:58:17.400Z,56.27
2023-06-29T22:00:46.005Z,56.39
2023-06-29T22:03:14.244Z,56.53
2023-06-29T22:05:42.184Z,56.66
2023-06-29T22:08:11.672Z,56.77
2023-06-29T22:10:39.652Z,56.91
2023-06-29T22:13:07.582Z,57.16
2023-06-29T22:15:38.228Z,57.31
2023-06-29T22:18:06.973Z,57.50
2023-06-29T22:20:35.119Z,57.53
2023-06-29T22:23:03.879Z,57.77
2023-06-29T22:25:33.223Z,57.85
2023-06-29T22:28:01.303Z,57.97
2023-06-29T22:30:29.272Z,58.08
2023-06-29T22:32:57.353Z,58.21
2023-06-29T22:35:26.097Z,58.29
2023-06-29T22:37:54.159Z,58.42
2023-06-29T22:40:22.315Z,58.54
2023-06-29T22:42:50.261Z,58.65
2023-06-29T22:45:19.285Z,58.67
2023-06-29T22:47:47.263Z,58.74
2023-06-29T22:50:15.441Z,58.66
2023-06-29T22:52:44.506Z,58.85
2023-06-29T22:55:12.882Z,58.82
2023-06-29T22:57:40.956Z,58.96
2023-06-29T23:00:10.273Z,58.98
2023-06-29T23:02:39.135Z,58.92
2023-06-29T23:05:08.493Z,58.98
2023-06-29T23:07:44.527Z,58.90
2023-06-29T23:10:16.339Z,58.94
2023-06-29T23:12:47.679Z,59.08
2023-06-29T23:15:17.073Z,58.79
2023-06-29T23:17:46.041Z,58.91
2023-06-29T23:20:14.394Z,58.81
2023-06-29T23:22:45.306Z,58.88
2023-06-29T23:25:13.372Z,58.93
2023-06-29T23:27:44.697Z,59.00
2023-06-29T23:30:15.722Z,58.93
2023-06-29T23:32:51.264Z,59.00
2023-06-29T23:35:21.787Z,59.08
2023-06-29T23:37:49.930Z,59.19
2023-06-29T23:40:18.054Z,59.31
2023-06-29T23:42:46.117Z,59.28
2023-06-29T23:45:14.143Z,59.35
2023-06-29T23:47:42.160Z,59.42
2023-06-29T23:50:12.562Z,59.59
2023-06-29T23:52:41.829Z,59.64
2023-06-29T23:55:12.952Z,59.80
2023-06-29T23:57:42.086Z,59.96
